Airfield :
LOGIN :

Register | Disclaimer

   EN    FR    IT 

 










Legend :    VFR   Marginal VFR   IFR   Intensive IFR   Very Intensive IFR
Visi :
Ceiling :
>= 8 km
>= 3000ft
5 to 8 km
1000 to 3000 ft
1500m to 5 km
500 to 1000 ft
800 to 1500m
200 to 500 ft
< 800m
< 200 ft
Symbols :   Thunderstorms  Fog  Heavy snow  Heavy precipitations  Wind > 20 kt
SIGMETs :     Misc.  Thunderstorms  Icing  Turbulence  Mountain Waves  Volcanic Ashes






- Airport Elevation : 465 ft
- IATA code : OMR


LROD - Oradea International

CURRENT METAR :
  • 021000Z 30005KT 260V350 CAVOK 33/15 Q1018

EXPIRED METARs :
  • 020930Z 21004KT 9999 FEW050CB 33/14 Q1018
  • 020900Z VRB03KT 9999 FEW053CB 32/16 Q1018
  • 020830Z 22006KT 180V270 9999 FEW050CB 31/17 Q1017
  • 012130Z 12005KT CAVOK 23/18 Q1014
  • 020800Z 01004KT 300V050 9999 FEW045 31/16 Q1018
  • 020730Z 09005KT 020V140 CAVOK 31/15 Q1017

TAF TAF LROD
Valid from the 02 at 09:00 until the 02 at 18:00 UTC


020800Z 0209/0218 VRB04KT CAVOK
BECMG 0209/0211 29010KT
PROB30
TEMPO 0214/0218 VRB20G38KT 3000 TSRAGR SQ BKN040CB



MET'MAP, your aeronautical weather chart ! - Copyright ORBIFLY December 2007 - Disclaimer

ORBIFLY MET'MAP TEAM :

Programming & Development : Alexandra Zaïnal
Original concept : Baudouin d'Aumeries
Technical & hardware support : Manuel Goepfert
Assistance : Marc-Olivier Méhu




SOURCES & CREDITS :

   NOAA